sensor_id;sensor_type;location;lat;lon;timestamp;temperature;humidity
16408;DHT22;8313;49.894;8.084;2023-09-18T00:00:51;22.70;99.90
16408;DHT22;8313;49.894;8.084;2023-09-18T00:03:20;22.70;99.90
16408;DHT22;8313;49.894;8.084;2023-09-18T00:05:46;22.70;99.90
16408;DHT22;8313;49.894;8.084;2023-09-18T00:08:14;22.60;99.90
16408;DHT22;8313;49.894;8.084;2023-09-18T00:10:40;22.60;99.90
16408;DHT22;8313;49.894;8.084;2023-09-18T00:13:06;22.50;99.90
16408;DHT22;8313;49.894;8.084;2023-09-18T00:15:31;22.50;99.90
16408;DHT22;8313;49.894;8.084;2023-09-18T00:17:57;22.50;99.90
16408;DHT22;8313;49.894;8.084;2023-09-18T00:20:23;22.50;99.90
16408;DHT22;8313;49.894;8.084;2023-09-18T00:22:54;22.50;99.90
16408;DHT22;8313;49.894;8.084;2023-09-18T00:25:20;22.50;99.90
16408;DHT22;8313;49.894;8.084;2023-09-18T00:27:46;22.40;99.90
16408;DHT22;8313;49.894;8.084;2023-09-18T00:30:12;22.50;99.90
16408;DHT22;8313;49.894;8.084;2023-09-18T00:32:37;22.40;99.90
16408;DHT22;8313;49.894;8.084;2023-09-18T00:35:03;22.40;99.90
16408;DHT22;8313;49.894;8.084;2023-09-18T00:37:29;22.40;99.90
16408;DHT22;8313;49.894;8.084;2023-09-18T00:39:55;22.30;99.90
16408;DHT22;8313;49.894;8.084;2023-09-18T00:42:21;22.30;99.90
16408;DHT22;8313;49.894;8.084;2023-09-18T00:44:48;22.30;99.90
16408;DHT22;8313;49.894;8.084;2023-09-18T00:47:15;22.30;99.90
16408;DHT22;8313;49.894;8.084;2023-09-18T00:49:44;22.30;99.90
16408;DHT22;8313;49.894;8.084;2023-09-18T00:52:10;22.30;99.90
16408;DHT22;8313;49.894;8.084;2023-09-18T00:54:37;22.30;99.90
16408;DHT22;8313;49.894;8.084;2023-09-18T00:57:04;22.20;99.90
16408;DHT22;8313;49.894;8.084;2023-09-18T00:59:30;22.20;99.90
16408;DHT22;8313;49.894;8.084;2023-09-18T01:01:56;22.20;99.90
16408;DHT22;8313;49.894;8.084;2023-09-18T01:04:23;22.20;99.90
16408;DHT22;8313;49.894;8.084;2023-09-18T01:06:51;22.20;99.90
16408;DHT22;8313;49.894;8.084;2023-09-18T01:09:17;22.20;99.90
16408;DHT22;8313;49.894;8.084;2023-09-18T01:14:44;22.20;99.90
16408;DHT22;8313;49.894;8.084;2023-09-18T01:17:12;22.10;99.90
16408;DHT22;8313;49.894;8.084;2023-09-18T01:22:06;22.00;99.90
16408;DHT22;8313;49.894;8.084;2023-09-18T01:24:33;22.00;99.90
16408;DHT22;8313;49.894;8.084;2023-09-18T01:26:59;22.10;99.90
16408;DHT22;8313;49.894;8.084;2023-09-18T01:29:25;22.10;99.90
16408;DHT22;8313;49.894;8.084;2023-09-18T01:31:51;22.10;99.90
16408;DHT22;8313;49.894;8.084;2023-09-18T01:34:20;22.00;99.90
16408;DHT22;8313;49.894;8.084;2023-09-18T01:36:47;22.00;99.90
16408;DHT22;8313;49.894;8.084;2023-09-18T01:39:14;22.10;99.90
16408;DHT22;8313;49.894;8.084;2023-09-18T01:41:41;22.00;99.90
16408;DHT22;8313;49.894;8.084;2023-09-18T01:44:07;21.60;99.90
16408;DHT22;8313;49.894;8.084;2023-09-18T01:46:33;21.70;99.90
16408;DHT22;8313;49.894;8.084;2023-09-18T01:49:02;21.80;99.90
16408;DHT22;8313;49.894;8.084;2023-09-18T01:51:31;21.30;99.90
16408;DHT22;8313;49.894;8.084;2023-09-18T01:53:57;21.10;99.90
16408;DHT22;8313;49.894;8.084;2023-09-18T01:56:23;21.10;99.90
16408;DHT22;8313;49.894;8.084;2023-09-18T01:58:49;21.30;99.90
16408;DHT22;8313;49.894;8.084;2023-09-18T02:01:15;21.40;99.90
16408;DHT22;8313;49.894;8.084;2023-09-18T02:03:41;21.50;99.90
16408;DHT22;8313;49.894;8.084;2023-09-18T02:06:10;21.50;99.90
16408;DHT22;8313;49.894;8.084;2023-09-18T02:08:36;21.50;99.90
16408;DHT22;8313;49.894;8.084;2023-09-18T02:11:02;21.70;99.90
16408;DHT22;8313;49.894;8.084;2023-09-18T02:13:29;21.80;99.90
16408;DHT22;8313;49.894;8.084;2023-09-18T02:15:55;21.80;99.90
16408;DHT22;8313;49.894;8.084;2023-09-18T02:18:21;21.80;99.90
16408;DHT22;8313;49.894;8.084;2023-09-18T02:20:46;21.90;99.90
16408;DHT22;8313;49.894;8.084;2023-09-18T02:23:15;21.90;99.90
16408;DHT22;8313;49.894;8.084;2023-09-18T02:25:42;21.90;99.90
16408;DHT22;8313;49.894;8.084;2023-09-18T02:28:07;21.90;99.90
16408;DHT22;8313;49.894;8.084;2023-09-18T02:30:33;21.90;99.90
16408;DHT22;8313;49.894;8.084;2023-09-18T02:32:59;21.80;99.90
16408;DHT22;8313;49.894;8.084;2023-09-18T02:35:25;21.80;99.90
16408;DHT22;8313;49.894;8.084;2023-09-18T02:37:51;21.80;99.90
16408;DHT22;8313;49.894;8.084;2023-09-18T02:40:17;21.80;99.90
16408;DHT22;8313;49.894;8.084;2023-09-18T02:42:43;21.80;99.90
16408;DHT22;8313;49.894;8.084;2023-09-18T02:45:09;21.70;99.90
16408;DHT22;8313;49.894;8.084;2023-09-18T02:47:35;21.70;99.90
16408;DHT22;8313;49.894;8.084;2023-09-18T02:50:05;21.70;99.90
16408;DHT22;8313;49.894;8.084;2023-09-18T02:52:31;21.70;99.90
16408;DHT22;8313;49.894;8.084;2023-09-18T02:54:56;21.70;99.90
16408;DHT22;8313;49.894;8.084;2023-09-18T02:57:22;21.70;99.90
16408;DHT22;8313;49.894;8.084;2023-09-18T02:59:48;21.70;99.90
16408;DHT22;8313;49.894;8.084;2023-09-18T03:02:14;21.60;99.90
16408;DHT22;8313;49.894;8.084;2023-09-18T03:04:40;21.60;99.90
16408;DHT22;8313;49.894;8.084;2023-09-18T03:07:05;21.70;99.90
16408;DHT22;8313;49.894;8.084;2023-09-18T03:09:31;21.60;99.90
16408;DHT22;8313;49.894;8.084;2023-09-18T03:11:57;21.60;99.90
16408;DHT22;8313;49.894;8.084;2023-09-18T03:14:22;21.60;99.90
16408;DHT22;8313;49.894;8.084;2023-09-18T03:16:48;21.60;99.90
16408;DHT22;8313;49.894;8.084;2023-09-18T03:19:14;21.60;99.90
16408;DHT22;8313;49.894;8.084;2023-09-18T03:21:40;21.70;99.90
16408;DHT22;8313;49.894;8.084;2023-09-18T03:24:06;21.60;99.90
16408;DHT22;8313;49.894;8.084;2023-09-18T03:26:32;21.60;99.90
16408;DHT22;8313;49.894;8.084;2023-09-18T03:28:58;21.60;99.90
16408;DHT22;8313;49.894;8.084;2023-09-18T03:31:24;21.60;99.90
16408;DHT22;8313;49.894;8.084;2023-09-18T03:33:49;21.60;99.90
16408;DHT22;8313;49.894;8.084;2023-09-18T03:36:15;21.60;99.90
16408;DHT22;8313;49.894;8.084;2023-09-18T03:38:41;21.60;99.90
16408;DHT22;8313;49.894;8.084;2023-09-18T03:41:07;21.60;99.90
16408;DHT22;8313;49.894;8.084;2023-09-18T03:43:33;21.50;99.90
16408;DHT22;8313;49.894;8.084;2023-09-18T03:46:06;21.50;99.90
16408;DHT22;8313;49.894;8.084;2023-09-18T03:48:35;21.50;99.90
16408;DHT22;8313;49.894;8.084;2023-09-18T03:51:04;21.50;99.90
16408;DHT22;8313;49.894;8.084;2023-09-18T03:53:32;21.40;99.90
16408;DHT22;8313;49.894;8.084;2023-09-18T03:55:58;21.30;99.90
16408;DHT22;8313;49.894;8.084;2023-09-18T03:58:24;21.30;99.90
16408;DHT22;8313;49.894;8.084;2023-09-18T04:00:50;21.30;99.90
16408;DHT22;8313;49.894;8.084;2023-09-18T04:03:17;21.20;99.90
16408;DHT22;8313;49.894;8.084;2023-09-18T04:05:42;21.20;99.90
16408;DHT22;8313;49.894;8.084;2023-09-18T04:08:08;21.30;99.90
16408;DHT22;8313;49.894;8.084;2023-09-18T04:10:34;21.30;99.90
16408;DHT22;8313;49.894;8.084;2023-09-18T04:13:00;21.20;99.90
16408;DHT22;8313;49.894;8.084;2023-09-18T04:15:25;21.10;99.90
16408;DHT22;8313;49.894;8.084;2023-09-18T04:17:53;21.20;99.90
16408;DHT22;8313;49.894;8.084;2023-09-18T04:20:18;21.30;99.90
16408;DHT22;8313;49.894;8.084;2023-09-18T04:22:45;21.30;99.90
16408;DHT22;8313;49.894;8.084;2023-09-18T04:25:15;21.30;99.90
16408;DHT22;8313;49.894;8.084;2023-09-18T04:27:41;21.30;99.90
16408;DHT22;8313;49.894;8.084;2023-09-18T04:30:08;21.30;99.90
16408;DHT22;8313;49.894;8.084;2023-09-18T04:32:37;21.40;99.90
16408;DHT22;8313;49.894;8.084;2023-09-18T04:35:03;21.30;99.90
16408;DHT22;8313;49.894;8.084;2023-09-18T04:37:31;21.40;99.90
16408;DHT22;8313;49.894;8.084;2023-09-18T04:39:57;21.30;99.90
16408;DHT22;8313;49.894;8.084;2023-09-18T04:42:23;21.30;99.90
16408;DHT22;8313;49.894;8.084;2023-09-18T04:44:49;21.30;99.90
16408;DHT22;8313;49.894;8.084;2023-09-18T04:47:14;21.30;99.90
16408;DHT22;8313;49.894;8.084;2023-09-18T04:49:40;21.30;99.90
16408;DHT22;8313;49.894;8.084;2023-09-18T04:52:06;21.30;99.90
16408;DHT22;8313;49.894;8.084;2023-09-18T04:54:31;21.30;99.90
16408;DHT22;8313;49.894;8.084;2023-09-18T04:56:57;21.30;99.90
16408;DHT22;8313;49.894;8.084;2023-09-18T04:59:23;21.10;99.90
16408;DHT22;8313;49.894;8.084;2023-09-18T05:01:48;21.10;99.90
16408;DHT22;8313;49.894;8.084;2023-09-18T05:04:14;21.10;99.90
16408;DHT22;8313;49.894;8.084;2023-09-18T05:06:41;21.10;99.90
16408;DHT22;8313;49.894;8.084;2023-09-18T05:09:07;21.00;99.90
16408;DHT22;8313;49.894;8.084;2023-09-18T05:11:33;21.00;99.90
16408;DHT22;8313;49.894;8.084;2023-09-18T05:13:59;20.80;99.90
16408;DHT22;8313;49.894;8.084;2023-09-18T05:16:25;20.80;99.90
16408;DHT22;8313;49.894;8.084;2023-09-18T05:18:51;20.90;99.90
16408;DHT22;8313;49.894;8.084;2023-09-18T05:21:16;20.80;99.90
16408;DHT22;8313;49.894;8.084;2023-09-18T05:23:47;20.80;99.90
16408;DHT22;8313;49.894;8.084;2023-09-18T05:26:13;20.80;99.90
16408;DHT22;8313;49.894;8.084;2023-09-18T05:28:39;20.70;99.90
16408;DHT22;8313;49.894;8.084;2023-09-18T05:31:04;20.80;99.90
16408;DHT22;8313;49.894;8.084;2023-09-18T05:33:30;20.80;99.90
16408;DHT22;8313;49.894;8.084;2023-09-18T05:35:56;20.80;99.90
16408;DHT22;8313;49.894;8.084;2023-09-18T05:38:21;20.90;99.90
16408;DHT22;8313;49.894;8.084;2023-09-18T05:40:47;20.90;99.90
16408;DHT22;8313;49.894;8.084;2023-09-18T05:43:13;20.80;99.90
16408;DHT22;8313;49.894;8.084;2023-09-18T05:45:39;20.80;99.90
16408;DHT22;8313;49.894;8.084;2023-09-18T05:48:05;20.80;99.90
16408;DHT22;8313;49.894;8.084;2023-09-18T05:50:32;20.90;99.90
16408;DHT22;8313;49.894;8.084;2023-09-18T05:52:59;20.90;99.90
16408;DHT22;8313;49.894;8.084;2023-09-18T05:55:26;20.90;99.90
16408;DHT22;8313;49.894;8.084;2023-09-18T05:57:53;20.80;99.90
16408;DHT22;8313;49.894;8.084;2023-09-18T06:00:19;20.80;99.90
16408;DHT22;8313;49.894;8.084;2023-09-18T06:02:44;20.80;99.90
16408;DHT22;8313;49.894;8.084;2023-09-18T06:05:11;20.90;99.90
16408;DHT22;8313;49.894;8.084;2023-09-18T06:07:37;21.00;99.90
16408;DHT22;8313;49.894;8.084;2023-09-18T06:10:03;21.00;99.90
16408;DHT22;8313;49.894;8.084;2023-09-18T06:12:29;21.00;99.90
16408;DHT22;8313;49.894;8.084;2023-09-18T06:14:55;21.00;99.90
16408;DHT22;8313;49.894;8.084;2023-09-18T06:17:21;20.80;99.90
16408;DHT22;8313;49.894;8.084;2023-09-18T06:19:47;20.80;99.90
16408;DHT22;8313;49.894;8.084;2023-09-18T06:22:14;20.90;99.90
16408;DHT22;8313;49.894;8.084;2023-09-18T06:24:39;21.00;99.90
16408;DHT22;8313;49.894;8.084;2023-09-18T06:27:05;20.90;99.90
16408;DHT22;8313;49.894;8.084;2023-09-18T06:29:32;20.90;99.90
16408;DHT22;8313;49.894;8.084;2023-09-18T06:31:58;20.90;99.90
16408;DHT22;8313;49.894;8.084;2023-09-18T06:34:24;20.90;99.90
16408;DHT22;8313;49.894;8.084;2023-09-18T06:36:50;21.00;99.90
16408;DHT22;8313;49.894;8.084;2023-09-18T06:39:15;21.00;99.90
16408;DHT22;8313;49.894;8.084;2023-09-18T06:41:41;21.10;99.90
16408;DHT22;8313;49.894;8.084;2023-09-18T06:44:08;21.10;99.90
16408;DHT22;8313;49.894;8.084;2023-09-18T06:46:34;21.10;99.90
16408;DHT22;8313;49.894;8.084;2023-09-18T06:49:00;21.10;99.90
16408;DHT22;8313;49.894;8.084;2023-09-18T06:51:29;21.10;99.90
16408;DHT22;8313;49.894;8.084;2023-09-18T06:53:55;21.10;99.90
16408;DHT22;8313;49.894;8.084;2023-09-18T06:56:25;21.00;99.90
16408;DHT22;8313;49.894;8.084;2023-09-18T06:58:51;21.10;99.90
16408;DHT22;8313;49.894;8.084;2023-09-18T07:01:18;21.10;99.90
16408;DHT22;8313;49.894;8.084;2023-09-18T07:03:48;21.10;99.90
16408;DHT22;8313;49.894;8.084;2023-09-18T07:06:14;21.10;99.90
16408;DHT22;8313;49.894;8.084;2023-09-18T07:08:46;21.10;99.90
16408;DHT22;8313;49.894;8.084;2023-09-18T07:11:15;21.20;99.90
16408;DHT22;8313;49.894;8.084;2023-09-18T07:13:41;21.20;99.90
16408;DHT22;8313;49.894;8.084;2023-09-18T07:16:09;21.20;99.90
16408;DHT22;8313;49.894;8.084;2023-09-18T07:18:35;21.20;99.90
16408;DHT22;8313;49.894;8.084;2023-09-18T07:21:00;21.20;99.90
16408;DHT22;8313;49.894;8.084;2023-09-18T07:23:26;21.10;99.90
16408;DHT22;8313;49.894;8.084;2023-09-18T07:25:52;21.10;99.90
16408;DHT22;8313;49.894;8.084;2023-09-18T07:28:18;21.10;99.90
16408;DHT22;8313;49.894;8.084;2023-09-18T07:30:44;21.10;99.90
16408;DHT22;8313;49.894;8.084;2023-09-18T07:33:11;21.20;99.90
16408;DHT22;8313;49.894;8.084;2023-09-18T07:35:36;21.20;99.90
16408;DHT22;8313;49.894;8.084;2023-09-18T07:38:03;21.20;99.90
16408;DHT22;8313;49.894;8.084;2023-09-18T07:40:29;21.20;99.90
16408;DHT22;8313;49.894;8.084;2023-09-18T07:42:54;21.20;99.90
16408;DHT22;8313;49.894;8.084;2023-09-18T07:45:20;21.20;99.90
16408;DHT22;8313;49.894;8.084;2023-09-18T07:47:46;21.20;99.90
16408;DHT22;8313;49.894;8.084;2023-09-18T07:50:12;21.20;99.90
16408;DHT22;8313;49.894;8.084;2023-09-18T07:52:38;21.20;99.90
16408;DHT22;8313;49.894;8.084;2023-09-18T07:55:04;21.20;99.90
16408;DHT22;8313;49.894;8.084;2023-09-18T07:57:30;21.20;99.90
16408;DHT22;8313;49.894;8.084;2023-09-18T07:59:58;21.20;99.90
16408;DHT22;8313;49.894;8.084;2023-09-18T08:02:24;21.30;99.90
16408;DHT22;8313;49.894;8.084;2023-09-18T08:04:50;21.30;99.90
16408;DHT22;8313;49.894;8.084;2023-09-18T08:07:20;21.30;99.90
16408;DHT22;8313;49.894;8.084;2023-09-18T08:09:46;21.30;99.90
16408;DHT22;8313;49.894;8.084;2023-09-18T08:12:14;21.30;99.90
16408;DHT22;8313;49.894;8.084;2023-09-18T08:14:40;21.30;99.90
16408;DHT22;8313;49.894;8.084;2023-09-18T08:17:05;21.30;99.90
16408;DHT22;8313;49.894;8.084;2023-09-18T08:19:33;21.20;99.90
16408;DHT22;8313;49.894;8.084;2023-09-18T08:21:59;21.20;99.90
16408;DHT22;8313;49.894;8.084;2023-09-18T08:24:29;21.30;99.90
16408;DHT22;8313;49.894;8.084;2023-09-18T08:26:55;21.30;99.90
16408;DHT22;8313;49.894;8.084;2023-09-18T08:29:22;21.20;99.90
16408;DHT22;8313;49.894;8.084;2023-09-18T08:31:47;21.20;99.90
16408;DHT22;8313;49.894;8.084;2023-09-18T08:34:13;21.20;99.90
16408;DHT22;8313;49.894;8.084;2023-09-18T08:36:40;21.20;99.90
16408;DHT22;8313;49.894;8.084;2023-09-18T08:39:05;21.20;99.90
16408;DHT22;8313;49.894;8.084;2023-09-18T08:41:32;21.20;99.90
16408;DHT22;8313;49.894;8.084;2023-09-18T08:44:02;21.20;99.90
16408;DHT22;8313;49.894;8.084;2023-09-18T08:46:30;21.20;99.90
16408;DHT22;8313;49.894;8.084;2023-09-18T08:48:57;21.20;99.90
16408;DHT22;8313;49.894;8.084;2023-09-18T08:51:24;21.20;99.90
16408;DHT22;8313;49.894;8.084;2023-09-18T08:53:50;21.20;99.90
16408;DHT22;8313;49.894;8.084;2023-09-18T08:56:17;21.10;99.90
16408;DHT22;8313;49.894;8.084;2023-09-18T08:58:43;21.20;99.90
16408;DHT22;8313;49.894;8.084;2023-09-18T09:01:10;21.20;99.90
16408;DHT22;8313;49.894;8.084;2023-09-18T09:03:40;21.20;99.90
16408;DHT22;8313;49.894;8.084;2023-09-18T09:06:08;21.20;99.90
16408;DHT22;8313;49.894;8.084;2023-09-18T09:08:35;21.20;99.90
16408;DHT22;8313;49.894;8.084;2023-09-18T09:11:01;21.20;99.90
16408;DHT22;8313;49.894;8.084;2023-09-18T09:13:27;21.20;99.90
16408;DHT22;8313;49.894;8.084;2023-09-18T09:15:55;21.20;99.90
16408;DHT22;8313;49.894;8.084;2023-09-18T09:18:28;21.20;99.90
16408;DHT22;8313;49.894;8.084;2023-09-18T09:20:56;21.30;99.90
16408;DHT22;8313;49.894;8.084;2023-09-18T09:23:26;21.30;99.90
16408;DHT22;8313;49.894;8.084;2023-09-18T09:25:52;21.20;99.90
16408;DHT22;8313;49.894;8.084;2023-09-18T09:28:29;21.30;99.90
16408;DHT22;8313;49.894;8.084;2023-09-18T09:31:02;21.20;99.90
16408;DHT22;8313;49.894;8.084;2023-09-18T09:33:28;21.20;99.90
16408;DHT22;8313;49.894;8.084;2023-09-18T09:35:55;21.20;99.90
16408;DHT22;8313;49.894;8.084;2023-09-18T09:38:31;21.30;99.90
16408;DHT22;8313;49.894;8.084;2023-09-18T09:40:58;21.20;99.90
16408;DHT22;8313;49.894;8.084;2023-09-18T09:43:30;21.20;99.90
16408;DHT22;8313;49.894;8.084;2023-09-18T09:45:57;21.30;99.90
16408;DHT22;8313;49.894;8.084;2023-09-18T09:48:24;21.30;99.90
16408;DHT22;8313;49.894;8.084;2023-09-18T09:50:51;21.30;99.90
16408;DHT22;8313;49.894;8.084;2023-09-18T09:53:17;21.30;99.90
16408;DHT22;8313;49.894;8.084;2023-09-18T09:55:54;21.30;99.90
16408;DHT22;8313;49.894;8.084;2023-09-18T09:58:26;21.40;99.90
16408;DHT22;8313;49.894;8.084;2023-09-18T10:00:58;21.40;99.90
16408;DHT22;8313;49.894;8.084;2023-09-18T10:03:28;21.50;99.90
16408;DHT22;8313;49.894;8.084;2023-09-18T10:05:56;21.50;99.90
16408;DHT22;8313;49.894;8.084;2023-09-18T10:08:24;21.60;99.90
16408;DHT22;8313;49.894;8.084;2023-09-18T10:11:01;21.60;99.90
16408;DHT22;8313;49.894;8.084;2023-09-18T10:13:49;21.60;99.90
16408;DHT22;8313;49.894;8.084;2023-09-18T10:16:18;21.60;99.90
16408;DHT22;8313;49.894;8.084;2023-09-18T10:26:37;21.70;99.90
16408;DHT22;8313;49.894;8.084;2023-09-18T10:29:07;21.70;99.90
16408;DHT22;8313;49.894;8.084;2023-09-18T10:31:36;21.70;99.90
16408;DHT22;8313;49.894;8.084;2023-09-18T10:34:05;21.70;99.90
16408;DHT22;8313;49.894;8.084;2023-09-18T10:36:31;21.70;99.90
16408;DHT22;8313;49.894;8.084;2023-09-18T10:38:58;21.80;99.90
16408;DHT22;8313;49.894;8.084;2023-09-18T10:41:26;21.80;99.90
16408;DHT22;8313;49.894;8.084;2023-09-18T10:43:53;21.80;99.90
16408;DHT22;8313;49.894;8.084;2023-09-18T10:46:23;21.90;99.90
16408;DHT22;8313;49.894;8.084;2023-09-18T10:48:50;21.90;99.90
16408;DHT22;8313;49.894;8.084;2023-09-18T10:51:20;21.90;99.90
16408;DHT22;8313;49.894;8.084;2023-09-18T10:53:47;22.00;99.90
16408;DHT22;8313;49.894;8.084;2023-09-18T10:56:15;22.00;99.90
16408;DHT22;8313;49.894;8.084;2023-09-18T10:58:42;22.00;99.90
16408;DHT22;8313;49.894;8.084;2023-09-18T11:01:14;22.10;99.90
16408;DHT22;8313;49.894;8.084;2023-09-18T11:03:40;22.10;99.90
16408;DHT22;8313;49.894;8.084;2023-09-18T11:06:12;22.10;99.90
16408;DHT22;8313;49.894;8.084;2023-09-18T11:08:49;22.10;99.90
16408;DHT22;8313;49.894;8.084;2023-09-18T11:11:18;22.10;99.90
16408;DHT22;8313;49.894;8.084;2023-09-18T11:13:51;22.10;99.90
16408;DHT22;8313;49.894;8.084;2023-09-18T11:21:29;22.20;99.90
16408;DHT22;8313;49.894;8.084;2023-09-18T11:26:29;22.20;99.90
16408;DHT22;8313;49.894;8.084;2023-09-18T11:28:59;22.20;99.90
16408;DHT22;8313;49.894;8.084;2023-09-18T11:34:15;22.20;99.90
16408;DHT22;8313;49.894;8.084;2023-09-18T11:36:44;22.20;99.90
16408;DHT22;8313;49.894;8.084;2023-09-18T11:39:11;22.20;99.90
16408;DHT22;8313;49.894;8.084;2023-09-18T11:41:38;22.20;99.90
16408;DHT22;8313;49.894;8.084;2023-09-18T11:46:40;22.20;99.90
16408;DHT22;8313;49.894;8.084;2023-09-18T11:49:10;22.20;99.90
16408;DHT22;8313;49.894;8.084;2023-09-18T11:51:36;22.20;99.90
16408;DHT22;8313;49.894;8.084;2023-09-18T11:54:03;22.30;99.90
16408;DHT22;8313;49.894;8.084;2023-09-18T11:56:32;22.30;99.90
16408;DHT22;8313;49.894;8.084;2023-09-18T11:58:58;22.30;99.90
16408;DHT22;8313;49.894;8.084;2023-09-18T12:01:25;22.40;99.90
16408;DHT22;8313;49.894;8.084;2023-09-18T12:03:54;22.50;99.90
16408;DHT22;8313;49.894;8.084;2023-09-18T12:06:20;22.50;99.90
16408;DHT22;8313;49.894;8.084;2023-09-18T12:08:46;22.50;99.90
16408;DHT22;8313;49.894;8.084;2023-09-18T12:11:13;22.50;99.90
16408;DHT22;8313;49.894;8.084;2023-09-18T12:13:43;22.60;99.90
16408;DHT22;8313;49.894;8.084;2023-09-18T12:16:08;22.60;99.90
16408;DHT22;8313;49.894;8.084;2023-09-18T12:18:35;22.70;99.90
16408;DHT22;8313;49.894;8.084;2023-09-18T12:21:06;22.70;99.90
16408;DHT22;8313;49.894;8.084;2023-09-18T12:23:41;22.70;99.90
16408;DHT22;8313;49.894;8.084;2023-09-18T12:26:15;22.80;99.90
16408;DHT22;8313;49.894;8.084;2023-09-18T12:28:45;22.80;99.90
16408;DHT22;8313;49.894;8.084;2023-09-18T12:33:38;22.90;99.90
16408;DHT22;8313;49.894;8.084;2023-09-18T12:36:06;22.90;99.90
16408;DHT22;8313;49.894;8.084;2023-09-18T12:38:32;22.90;99.90
16408;DHT22;8313;49.894;8.084;2023-09-18T12:41:01;22.90;99.90
16408;DHT22;8313;49.894;8.084;2023-09-18T12:43:39;23.00;99.90
16408;DHT22;8313;49.894;8.084;2023-09-18T12:46:08;22.90;99.90
16408;DHT22;8313;49.894;8.084;2023-09-18T12:48:41;23.00;99.90
16408;DHT22;8313;49.894;8.084;2023-09-18T12:51:10;22.90;99.90
16408;DHT22;8313;49.894;8.084;2023-09-18T12:53:36;23.00;99.90
16408;DHT22;8313;49.894;8.084;2023-09-18T12:56:12;23.00;99.90
16408;DHT22;8313;49.894;8.084;2023-09-18T12:58:38;23.00;99.90
16408;DHT22;8313;49.894;8.084;2023-09-18T13:01:07;23.10;99.90
16408;DHT22;8313;49.894;8.084;2023-09-18T13:03:42;23.10;99.90
16408;DHT22;8313;49.894;8.084;2023-09-18T13:06:14;23.10;99.90
16408;DHT22;8313;49.894;8.084;2023-09-18T13:08:42;23.10;99.90
16408;DHT22;8313;49.894;8.084;2023-09-18T13:11:08;23.20;99.90
16408;DHT22;8313;49.894;8.084;2023-09-18T13:13:36;23.20;99.90
16408;DHT22;8313;49.894;8.084;2023-09-18T13:16:05;23.30;99.90
16408;DHT22;8313;49.894;8.084;2023-09-18T13:18:31;23.20;99.90
16408;DHT22;8313;49.894;8.084;2023-09-18T13:20:57;23.20;99.90
16408;DHT22;8313;49.894;8.084;2023-09-18T13:23:30;23.30;99.90
16408;DHT22;8313;49.894;8.084;2023-09-18T13:26:05;23.30;99.90
16408;DHT22;8313;49.894;8.084;2023-09-18T13:28:31;23.30;99.90
16408;DHT22;8313;49.894;8.084;2023-09-18T13:31:01;23.40;99.90
16408;DHT22;8313;49.894;8.084;2023-09-18T13:33:30;23.40;99.90
16408;DHT22;8313;49.894;8.084;2023-09-18T13:35:58;23.40;99.90
16408;DHT22;8313;49.894;8.084;2023-09-18T13:38:24;23.40;99.90
16408;DHT22;8313;49.894;8.084;2023-09-18T13:40:53;23.40;99.90
16408;DHT22;8313;49.894;8.084;2023-09-18T13:43:20;23.50;99.90
16408;DHT22;8313;49.894;8.084;2023-09-18T13:45:47;23.50;99.90
16408;DHT22;8313;49.894;8.084;2023-09-18T13:48:13;23.50;99.90
16408;DHT22;8313;49.894;8.084;2023-09-18T13:50:40;23.60;99.90
16408;DHT22;8313;49.894;8.084;2023-09-18T13:53:06;23.60;99.90
16408;DHT22;8313;49.894;8.084;2023-09-18T13:55:33;23.70;99.90
16408;DHT22;8313;49.894;8.084;2023-09-18T13:57:58;24.00;99.90
16408;DHT22;8313;49.894;8.084;2023-09-18T14:00:24;24.10;99.90
16408;DHT22;8313;49.894;8.084;2023-09-18T14:02:51;24.20;99.90
16408;DHT22;8313;49.894;8.084;2023-09-18T14:05:16;24.30;99.90
16408;DHT22;8313;49.894;8.084;2023-09-18T14:07:42;24.30;99.90
16408;DHT22;8313;49.894;8.084;2023-09-18T14:10:09;24.40;99.90
16408;DHT22;8313;49.894;8.084;2023-09-18T14:12:39;24.40;99.90
16408;DHT22;8313;49.894;8.084;2023-09-18T14:15:06;24.30;99.90
16408;DHT22;8313;49.894;8.084;2023-09-18T14:17:33;24.40;99.90
16408;DHT22;8313;49.894;8.084;2023-09-18T14:19:59;24.50;99.90
16408;DHT22;8313;49.894;8.084;2023-09-18T14:22:25;24.40;99.90
16408;DHT22;8313;49.894;8.084;2023-09-18T14:24:51;24.40;99.90
16408;DHT22;8313;49.894;8.084;2023-09-18T14:27:17;24.40;99.90
16408;DHT22;8313;49.894;8.084;2023-09-18T14:29:43;24.40;99.90
16408;DHT22;8313;49.894;8.084;2023-09-18T14:32:09;24.30;99.90
16408;DHT22;8313;49.894;8.084;2023-09-18T14:34:35;24.40;99.90
16408;DHT22;8313;49.894;8.084;2023-09-18T14:37:04;24.50;99.90
16408;DHT22;8313;49.894;8.084;2023-09-18T14:39:31;24.60;99.90
16408;DHT22;8313;49.894;8.084;2023-09-18T14:41:58;24.50;99.90
16408;DHT22;8313;49.894;8.084;2023-09-18T14:44:25;24.60;99.90
16408;DHT22;8313;49.894;8.084;2023-09-18T14:46:53;24.60;99.90
16408;DHT22;8313;49.894;8.084;2023-09-18T14:49:19;24.50;99.90
16408;DHT22;8313;49.894;8.084;2023-09-18T14:51:45;24.50;99.90
16408;DHT22;8313;49.894;8.084;2023-09-18T14:54:11;24.50;99.90
16408;DHT22;8313;49.894;8.084;2023-09-18T14:56:37;24.40;99.90
16408;DHT22;8313;49.894;8.084;2023-09-18T14:59:05;24.50;99.90
16408;DHT22;8313;49.894;8.084;2023-09-18T15:01:32;24.50;99.90
16408;DHT22;8313;49.894;8.084;2023-09-18T15:03:58;24.40;99.90
16408;DHT22;8313;49.894;8.084;2023-09-18T15:06:24;24.40;99.90
16408;DHT22;8313;49.894;8.084;2023-09-18T15:08:51;24.40;99.90
16408;DHT22;8313;49.894;8.084;2023-09-18T15:11:17;24.40;99.90
16408;DHT22;8313;49.894;8.084;2023-09-18T15:13:43;24.50;99.90
16408;DHT22;8313;49.894;8.084;2023-09-18T15:16:09;24.50;99.90
16408;DHT22;8313;49.894;8.084;2023-09-18T15:18:34;24.60;99.90
16408;DHT22;8313;49.894;8.084;2023-09-18T15:21:01;24.80;99.90
16408;DHT22;8313;49.894;8.084;2023-09-18T15:23:27;24.90;99.90
16408;DHT22;8313;49.894;8.084;2023-09-18T15:25:55;24.90;99.90
16408;DHT22;8313;49.894;8.084;2023-09-18T15:28:21;24.80;99.90
16408;DHT22;8313;49.894;8.084;2023-09-18T15:30:49;24.90;99.90
16408;DHT22;8313;49.894;8.084;2023-09-18T15:33:15;24.90;99.90
16408;DHT22;8313;49.894;8.084;2023-09-18T15:35:46;24.90;99.90
16408;DHT22;8313;49.894;8.084;2023-09-18T15:38:11;24.80;99.90
16408;DHT22;8313;49.894;8.084;2023-09-18T15:40:37;24.80;99.90
16408;DHT22;8313;49.894;8.084;2023-09-18T15:43:04;24.80;99.90
16408;DHT22;8313;49.894;8.084;2023-09-18T15:45:30;24.70;99.90
16408;DHT22;8313;49.894;8.084;2023-09-18T15:47:56;24.60;99.90
16408;DHT22;8313;49.894;8.084;2023-09-18T15:50:22;24.60;99.90
16408;DHT22;8313;49.894;8.084;2023-09-18T15:52:49;24.50;99.90
16408;DHT22;8313;49.894;8.084;2023-09-18T15:55:15;24.40;99.90
16408;DHT22;8313;49.894;8.084;2023-09-18T15:57:40;24.40;99.90
16408;DHT22;8313;49.894;8.084;2023-09-18T16:00:08;24.40;99.90
16408;DHT22;8313;49.894;8.084;2023-09-18T16:02:40;24.40;99.90
16408;DHT22;8313;49.894;8.084;2023-09-18T16:05:07;24.30;99.90
16408;DHT22;8313;49.894;8.084;2023-09-18T16:07:34;24.30;99.90
16408;DHT22;8313;49.894;8.084;2023-09-18T16:10:05;24.20;99.90
16408;DHT22;8313;49.894;8.084;2023-09-18T16:12:33;24.20;99.90